Latest Weather Observations for Braidwood

IDN60901

Issued at 2:55 pm EDT Friday 31 October 2014 (issued every 10 minutes, with the page automatically refreshed every 10 minutes)

About weather observations | Map of Canberra area stations | Latest observations for Canberra area | Other Formats
Station Details ID: 069132 Name: BRAIDWOOD RACECOURSE AWS Lat: -35.43 Lon: 149.78 Height: 665.2 m
Data from the previous 72 hours. | See also: Recent months at Braidwood
Date/Time
EDT
Tmp

°C
App
Tmp
°C
Dew
Point
°C
Rel
Hum
%
Delta-T

°C
Wind Press
QNH
hPa
Press
MSL
hPa
Rain
since
9 am
mm
Dir
 
Spd
km/h
Gust
km/h
Spd
kts
Gust
kts
31/02:30pm 26.7 19.2 3.2 22 12.0 WNW 32 46 17 25 1010.5 1009.7 0.0
31/02:22pm 26.9 20.2 3.4 22 12.0 WNW 28 46 15 25 1010.6 1009.8 0.0
31/02:00pm 28.2 21.4 5.1 23 12.3 WNW 30 44 16 24 1011.0 1010.1 0.0
31/01:48pm 27.6 20.7 2.6 20 12.7 NW 28 48 15 26 1011.1 1010.2 0.0
31/01:30pm 27.5 21.6 3.9 22 12.2 NW 24 44 13 24 1011.3 1010.4 0.0
31/01:00pm 27.5 22.5 6.3 26 11.5 NW 22 37 12 20 1011.7 1010.9 0.0
31/12:30pm 26.7 22.4 7.2 29 10.7 NW 19 30 10 16 1012.1 1011.3 0.0
31/12:00pm 26.1 21.4 5.1 26 11.0 NNW 19 39 10 21 1012.7 1011.8 0.0
31/11:30am 25.8 22.0 7.4 31 10.0 NNW 17 28 9 15 1013.2 1012.4 0.0
31/11:00am 24.6 20.4 5.9 30 9.9 NNW 17 30 9 16 1013.9 1013.1 0.0
31/10:30am 23.6 21.4 9.2 40 8.0 NNW 11 20 6 11 1014.3 1013.4 0.0
31/10:00am 21.9 20.0 9.1 44 7.1 NNW 9 15 5 8 1014.6 1013.8 0.0
31/09:30am 19.6 19.4 10.6 56 5.0 NNW 2 9 1 5 1014.9 1014.1 0.0
31/09:00am 16.4 16.2 9.1 62 3.9 CALM 0 0 0 0 1015.0 1014.2 0.0
31/08:30am 14.1 13.8 8.7 70 2.8 CALM 0 0 0 0 1015.2 1014.4 0.0
31/08:00am 12.2 12.0 8.9 80 1.7 CALM 0 0 0 0 1015.1 1014.3 0.0
31/07:30am 9.1 8.5 7.5 90 0.8 CALM 0 0 0 0 1015.0 1014.2 0.0
31/07:00am 6.1 5.0 5.2 94 0.4 CALM 0 0 0 0 1014.6 1013.8 0.0
31/06:30am 4.2 2.8 3.5 95 0.3 CALM 0 0 0 0 1014.3 1013.4 0.0
31/06:00am 4.0 2.5 3.1 94 0.4 S 0 0 0 0 1014.2 1013.3 0.0
31/05:30am 3.6 2.0 2.7 94 0.4 CALM 0 0 0 0 1014.0 1013.2 0.0
31/05:00am 3.6 2.0 2.7 94 0.4 CALM 0 0 0 0 1014.0 1013.2 0.0
31/04:30am 4.4 3.0 3.5 94 0.4 CALM 0 0 0 0 1013.9 1013.1 0.0
31/04:00am 4.3 2.9 3.3 93 0.4 CALM 0 0 0 0 1014.3 1013.4 0.0
31/03:30am 5.1 3.8 4.1 93 0.4 CALM 0 0 0 0 1014.4 1013.6 0.0
31/03:00am 5.1 3.8 3.9 92 0.5 CALM 0 0 0 0 1014.6 1013.8 0.0
31/02:30am 5.0 3.6 3.3 89 0.7 CALM 0 0 0 0 1014.8 1014.0 0.0
31/02:00am 6.2 5.0 4.8 91 0.6 CALM 0 0 0 0 1015.2 1014.4 0.0
31/01:30am 6.4 5.2 4.4 87 0.9 CALM 0 0 0 0 1015.8 1015.0 0.0
31/01:00am 7.5 6.5 5.6 88 0.9 CALM 0 0 0 0 1015.9 1015.1 0.0
31/12:30am 7.9 6.9 5.4 84 1.2 CALM 0 0 0 0 1016.2 1015.4 0.0
31/12:00am 8.4 7.4 5.5 82 1.4 E 0 0 0 0 1016.3 1015.5 0.0
 
Date/Time
EDT
Tmp

°C
App
Tmp
°C
Dew
Point
°C
Rel
Hum
%
Delta-T

°C
Wind Press
QNH
hPa
Press
MSL
hPa
Rain
since
9 am
mm
Dir
 
Spd
km/h
Gust
km/h
Spd
kts
Gust
kts
30/11:30pm 9.0 8.0 5.4 78 1.7 CALM 0 0 0 0 1016.3 1015.5 0.0
30/11:00pm 9.9 8.6 5.9 76 1.9 SSE 2 4 1 2 1016.4 1015.6 0.0
30/10:30pm 10.5 8.3 6.1 74 2.1 S 7 13 4 7 1016.4 1015.6 0.0
30/10:00pm 10.8 8.3 6.4 74 2.1 SSE 9 11 5 6 1016.1 1015.3 0.0
30/09:30pm 11.9 9.2 7.4 74 2.3 SSE 11 17 6 9 1016.0 1015.2 0.0
30/09:00pm 12.8 9.8 7.7 71 2.6 SSE 13 17 7 9 1015.5 1014.7 0.0
30/08:30pm 14.1 12.2 7.6 65 3.3 SSE 7 13 4 7 1015.2 1014.4 0.0
30/08:00pm 16.8 14.8 4.5 44 6.0 SSW 4 7 2 4 1014.6 1013.8 0.0
30/07:30pm 18.4 14.4 3.1 36 7.4 WNW 13 19 7 10 1014.0 1013.2 0.0
30/07:00pm 21.3 16.6 3.0 30 9.0 WNW 17 28 9 15 1013.5 1012.7 0.0
30/06:30pm 22.4 17.2 3.5 29 9.4 WNW 20 30 11 16 1013.1 1012.3 0.0
30/06:00pm 23.1 18.0 4.1 29 9.6 WNW 20 28 11 15 1012.9 1012.0 0.0
30/05:30pm 24.2 19.3 4.0 27 10.3 WNW 19 24 10 13 1012.8 1011.9 0.0
30/05:00pm 24.3 20.0 5.1 29 10.0 NW 17 30 9 16 1012.7 1011.8 0.0
30/04:30pm 24.2 19.3 4.0 27 10.3 NW 19 32 10 17 1012.6 1011.7 0.0
30/04:00pm 24.5 19.5 4.8 28 10.2 WNW 20 35 11 19 1012.7 1011.8 0.0
30/03:30pm 24.6 19.8 4.9 28 10.2 W 19 28 10 15 1012.8 1011.9 0.0
30/03:00pm 24.2 20.1 4.6 28 10.1 WNW 15 24 8 13 1013.1 1012.3 0.0
30/02:30pm 24.0 20.1 5.4 30 9.7 W 15 24 8 13 1013.5 1012.7 0.0
30/02:00pm 23.3 19.5 7.4 36 8.6 WNW 17 26 9 14 1014.2 1013.3 0.0
30/01:30pm 22.9 19.2 6.2 34 8.8 NW 15 26 8 14 1014.4 1013.6 0.0
30/01:00pm 22.0 17.0 4.6 32 8.8 WNW 20 33 11 18 1014.7 1013.9 0.0
30/12:30pm 21.8 17.3 4.4 32 8.8 W 17 24 9 13 1015.0 1014.2 0.0
30/12:00pm 21.4 17.3 4.5 33 8.5 W 15 22 8 12 1015.2 1014.4 0.0
30/11:30am 20.7 17.0 4.3 34 8.2 W 13 20 7 11 1015.3 1014.5 0.0
30/11:00am 20.2 17.0 5.1 37 7.6 WSW 11 19 6 10 1015.6 1014.9 0.0
30/10:30am 18.5 17.0 7.0 47 6.0 WNW 4 13 2 7 1015.6 1014.9 0.0
30/10:00am 17.9 15.9 6.4 47 5.9 NW 6 9 3 5 1015.6 1014.9 0.0
30/09:30am 16.7 16.1 9.1 61 4.1 N 2 7 1 4 1016.0 1015.2 0.0
30/09:00am 15.1 14.7 9.9 71 2.8 N 2 7 1 4 1016.1 1015.3 0.0
30/08:30am 11.8 10.9 10.5 92 0.7 N 6 9 3 5 1016.0 1015.2 0.0
30/08:00am 9.6 9.4 9.1 97 0.3 CALM 0 0 0 0 1016.0 1015.2 0.0
30/07:30am 8.2 7.6 7.6 96 0.3 CALM 0 0 0 0 1016.0 1015.2 0.0
30/07:00am 7.5 6.8 6.9 96 0.3 CALM 0 0 0 0 1015.8 1015.0 0.0
30/06:30am 7.2 6.4 6.6 96 0.3 CALM 0 0 0 0 1015.5 1014.7 0.0
30/06:00am 7.3 6.5 6.7 96 0.3 CALM 0 0 0 0 1015.3 1014.5 0.0
30/05:30am 7.8 7.2 7.2 96 0.3 CALM 0 0 0 0 1015.2 1014.4 0.0
30/05:00am 8.1 7.1 7.5 96 0.3 N 2 6 1 3 1015.0 1014.2 0.0
30/04:30am 8.6 8.1 8.0 96 0.3 CALM 0 0 0 0 1015.0 1014.2 0.0
30/04:00am 9.2 8.5 8.6 96 0.3 NNW 2 7 1 4 1015.3 1014.5 0.0
30/03:30am 9.5 9.3 8.9 96 0.3 CALM 0 0 0 0 1015.2 1014.4 0.0
30/03:00am 9.8 9.6 9.2 96 0.3 CALM 0 0 0 0 1015.4 1014.6 0.0
30/02:30am 9.9 9.4 9.3 96 0.3 NNW 2 6 1 3 1015.5 1014.7 0.0
30/02:00am 10.2 9.8 9.6 96 0.3 NNW 2 9 1 5 1015.6 1014.9 0.0
30/01:30am 9.9 9.7 9.1 95 0.4 CALM 0 0 0 0 1016.1 1015.3 0.0
30/01:00am 10.0 9.8 9.2 95 0.4 CALM 0 0 0 0 1016.5 1015.7 0.0
30/12:30am 10.0 9.8 9.1 94 0.5 CALM 0 0 0 0 1016.7 1015.9 0.0
30/12:00am 9.9 9.7 9.0 94 0.5 CALM 0 0 0 0 1016.9 1016.2 0.0
 
Date/Time
EDT
Tmp

°C
App
Tmp
°C
Dew
Point
°C
Rel
Hum
%
Delta-T

°C
Wind Press
QNH
hPa
Press
MSL
hPa
Rain
since
9 am
mm
Dir
 
Spd
km/h
Gust
km/h
Spd
kts
Gust
kts
29/11:30pm 9.7 9.2 8.0 89 0.9 CALM 0 0 0 0 1017.0 1016.3 0.0
29/11:00pm 11.5 11.6 10.2 92 0.7 CALM 0 0 0 0 1017.1 1016.4 0.0
29/10:30pm 11.8 12.0 10.4 91 0.7 CALM 0 0 0 0 1017.2 1016.5 0.0
29/10:00pm 12.0 11.8 10.6 91 0.7 S 2 4 1 2 1017.4 1016.6 0.0
29/09:30pm 12.4 11.6 11.0 91 0.8 S 6 6 3 3 1017.4 1016.6 0.0
29/09:00pm 12.4 11.6 11.0 91 0.8 SE 6 9 3 5 1017.4 1016.6 0.0
29/08:30pm 12.6 11.3 11.2 91 0.8 SSE 9 11 5 6 1017.1 1016.4 0.0
29/08:00pm 12.5 10.7 10.9 90 0.9 S 11 13 6 7 1016.9 1016.2 0.0
29/07:30pm 12.6 11.3 11.2 91 0.8 SSE 9 13 5 7 1016.5 1015.7 0.0
29/07:00pm 12.9 10.3 10.6 86 1.2 SE 15 20 8 11 1016.0 1015.2 0.0
29/06:30pm 14.1 11.2 11.1 82 1.6 SE 17 22 9 12 1015.5 1014.7 0.0
29/06:00pm 15.6 12.4 11.4 76 2.3 ESE 19 24 10 13 1015.3 1014.5 0.0
29/05:30pm 17.1 13.5 11.8 71 3.0 E 22 30 12 16 1014.9 1014.1 0.0
29/05:00pm 19.2 15.6 9.9 55 5.1 WSW 19 24 10 13 1014.6 1013.8 0.0
29/04:30pm 22.3 19.6 7.3 38 8.0 N 11 22 6 12 1014.5 1013.7 0.0
29/04:00pm 22.9 20.2 7.4 37 8.3 NNW 11 22 6 12 1014.5 1013.7 0.0
29/03:30pm 22.8 20.3 8.1 39 8.0 N 11 26 6 14 1014.7 1013.9 0.0
29/03:00pm 22.3 19.9 8.8 42 7.4 N 11 20 6 11 1015.1 1014.3 0.0
29/02:30pm 22.0 20.1 9.2 44 7.1 N 9 20 5 11 1015.5 1014.7 0.0
29/02:00pm 22.1 20.3 9.3 44 7.1 N 9 17 5 9 1015.8 1015.0 0.0
29/01:30pm 21.4 19.6 9.6 47 6.5 N 9 20 5 11 1016.2 1015.4 0.0
29/11:00am 17.9 16.4 7.0 49 5.6 NNE 4 13 2 7 1017.8 1017.0 0.0
29/10:30am 16.6 15.5 5.3 47 5.6 CALM 0 0 0 0 1018.0 1017.2 0.0
29/10:00am 15.6 14.6 5.8 52 4.9 CALM 0 6 0 3 1018.0 1017.2 0.0
29/09:30am 14.8 14.0 6.4 57 4.2 CALM 0 0 0 0 1018.0 1017.2 0.0
29/09:00am 13.8 13.0 6.7 62 3.6 CALM 0 0 0 0 1017.9 1017.1 0.0
29/08:30am 12.9 12.1 6.7 66 3.1 CALM 0 0 0 0 1017.9 1017.1 0.0
29/08:00am 10.9 10.2 6.8 76 2.0 CALM 0 0 0 0 1017.7 1016.9 0.0
29/07:30am 9.4 8.8 7.3 87 1.0 CALM 0 0 0 0 1017.2 1016.5 0.0
29/07:00am 5.5 4.3 4.5 93 0.4 CALM 0 0 0 0 1017.1 1016.4 0.0
29/06:30am 3.7 2.2 2.8 94 0.4 CALM 0 0 0 0 1016.8 1016.0 0.0
29/06:00am 2.7 0.9 1.5 92 0.5 CALM 0 0 0 0 1016.4 1015.6 0.0
29/05:30am 3.4 1.7 2.1 91 0.5 CALM 0 0 0 0 1015.9 1015.1 0.0
29/05:00am 3.7 2.0 2.1 89 0.7 CALM 0 0 0 0 1015.4 1014.6 0.0
29/04:30am 4.5 3.0 2.8 89 0.7 CALM 0 0 0 0 1015.3 1014.5 0.0
29/04:00am 4.4 2.8 2.4 87 0.8 CALM 0 0 0 0 1015.1 1014.3 0.0
29/03:30am 5.7 4.4 4.0 89 0.8 CALM 0 0 0 0 1015.0 1014.2 0.0
29/03:00am 6.4 4.4 4.2 86 1.0 ENE 4 6 2 3 1014.8 1014.0 0.0
29/02:30am 6.8 4.6 3.2 78 1.6 SSW 4 6 2 3 1014.6 1013.8 0.0
29/02:00am 8.5 6.1 4.5 76 1.8 NW 6 9 3 5 1014.3 1013.4 0.0
29/01:30am 7.8 6.1 4.0 77 1.7 N 2 7 1 4 1014.7 1013.9 0.0
29/01:00am 7.6 5.9 4.2 79 1.5 NNW 2 7 1 4 1014.9 1014.1 0.0
29/12:30am 8.5 7.1 3.8 72 2.1 CALM 0 0 0 0 1014.9 1014.1 0.0
29/12:00am 9.9 8.1 3.4 64 2.9 N 2 6 1 3 1014.8 1014.0 0.0
 
Date/Time
EDT
Tmp

°C
App
Tmp
°C
Dew
Point
°C
Rel
Hum
%
Delta-T

°C
Wind Press
QNH
hPa
Press
MSL
hPa
Rain
since
9 am
mm
Dir
 
Spd
km/h
Gust
km/h
Spd
kts
Gust
kts
28/11:30pm 9.7 8.3 3.4 65 2.8 CALM 0 0 0 0 1014.8 1014.0 0.0
28/11:00pm 11.4 8.6 3.4 58 3.7 WNW 7 11 4 6 1014.7 1013.9 0.0
28/10:30pm 11.2 8.7 4.0 61 3.3 NW 6 9 3 5 1014.5 1013.7 0.0
28/10:00pm 12.3 9.5 3.3 54 4.1 W 7 15 4 8 1014.2 1013.3 0.0
28/09:30pm 13.0 7.4 3.4 52 4.5 W 22 32 12 17 1013.9 1013.1 0.0
28/09:00pm 13.1 8.8 3.5 52 4.5 W 15 26 8 14 1014.3 1013.4 0.0
28/08:30pm 13.6 9.2 4.5 54 4.3 W 17 26 9 14 1013.6 1012.8 0.0
28/08:00pm 13.3 10.3 3.9 53 4.4 W 9 17 5 9 1013.2 1012.4 0.0
28/07:30pm 14.1 9.9 3.8 50 4.9 W 15 26 8 14 1012.9 1012.0 0.0
28/07:00pm 15.3 10.3 3.8 46 5.5 W 19 30 10 16 1012.4 1011.6 0.0
28/06:30pm 15.8 9.9 3.9 45 5.7 W 24 43 13 23 1011.7 1010.9 0.0
28/06:00pm 16.5 9.5 3.9 43 6.1 W 30 41 16 22 1011.2 1010.3 0.0
28/05:30pm 17.0 9.6 4.0 42 6.3 WNW 32 52 17 28 1010.7 1009.9 0.0
28/05:25pm 17.2 9.8 4.2 42 6.3 WNW 32 52 17 28 1010.5 1009.7 0.0
28/05:00pm 17.2 9.8 3.8 41 6.5 WNW 32 46 17 25 1010.2 1009.3 0.0
28/04:35pm 17.9 11.2 3.8 39 6.9 WNW 28 48 15 26 1009.9 1009.0 0.0
28/04:30pm 17.9 11.4 4.5 41 6.6 WNW 28 44 15 24 1009.9 1009.0 0.0
28/04:03pm 18.2 10.0 2.9 36 7.3 WNW 35 56 19 30 1009.6 1008.7 0.0
28/04:00pm 18.6 10.6 3.6 37 7.3 WNW 35 50 19 27 1009.5 1008.6 0.0
28/03:30pm 18.8 10.7 3.0 35 7.6 WNW 35 48 19 26 1009.5 1008.6 0.0
28/03:00pm 18.8 11.7 3.4 36 7.5 WNW 30 43 16 23 1009.7 1008.8 0.0

Latest Capital City Observations: Canberra | Sydney | Melbourne | Brisbane | Adelaide | Perth | Hobart | Darwin

Other Formats:

Comma delimited format used in spreadsheet applications
http://www.bom.gov.au/fwo/IDN60903/IDN60903.94927.axf

JavaScript Object Notation format (JSON) in row-major order
http://www.bom.gov.au/fwo/IDN60903/IDN60903.94927.json